Time;durP1;ratioP1;P1;durP2;ratioP2;P2;SDS_P1;SDS_P2;PMS_P1;PMS_P2;Temp;Humidity;BMP_temperature;BMP_pressure;BME280_temperature;BME280_humidity;BME280_pressure;Samples;Min_cycle;Max_cycle;Signal;HPM_P1;HPM_P2
2023/08/05 00:00:23;;;;;;;106.27;69.90;;;;;22.80;100504.00;;;;2068335;28;20211;-69
2023/08/05 00:01:24;;;;;;;107.83;72.50;;;;;22.80;100543.00;;;;2068183;28;20211;-69
2023/08/05 00:02:24;;;;;;;133.37;85.57;;;;;22.80;100544.00;;;;2068249;28;20274;-69
2023/08/05 00:03:24;;;;;;;136.57;87.30;;;;;22.80;100526.00;;;;2051568;28;20765;-69
2023/08/05 00:04:25;;;;;;;145.07;93.43;;;;;22.80;100544.00;;;;2071439;28;20587;-69
2023/08/05 00:05:25;;;;;;;142.50;96.73;;;;;22.80;100540.00;;;;2071076;28;20565;-69
2023/08/05 00:06:25;;;;;;;136.90;91.77;;;;;22.80;100541.00;;;;2071322;28;20206;-69
2023/08/05 00:07:26;;;;;;;149.03;97.80;;;;;22.80;100541.00;;;;2069974;28;20218;-69
2023/08/05 00:08:26;;;;;;;143.97;96.73;;;;;22.80;100550.00;;;;2066575;28;20252;-69
2023/08/05 00:09:26;;;;;;;140.97;94.60;;;;;22.80;100545.00;;;;2073379;28;20222;-69
2023/08/05 00:10:27;;;;;;;142.67;95.67;;;;;22.80;100553.00;;;;2074876;28;20207;-69
2023/08/05 00:11:28;;;;;;;151.57;98.05;;;;;22.80;100544.00;;;;2072043;28;20252;-70
2023/08/05 00:12:28;;;;;;;140.03;95.30;;;;;22.80;100545.00;;;;2071067;28;20214;-69
2023/08/05 00:13:34;;;;;;;140.27;92.83;;;;;22.80;100550.00;;;;2061148;28;20352;-69
2023/08/05 00:14:34;;;;;;;135.10;87.18;;;;;22.80;100539.00;;;;2068790;28;20236;-69
2023/08/05 00:15:34;;;;;;;130.60;85.33;;;;;22.80;100536.00;;;;2070780;28;20301;-69
2023/08/05 00:16:35;;;;;;;131.83;84.70;;;;;22.80;100534.00;;;;2063863;28;20211;-69
2023/08/05 00:17:35;;;;;;;130.87;85.00;;;;;22.80;100546.00;;;;2070821;28;20256;-69
2023/08/05 00:18:35;;;;;;;133.03;82.50;;;;;22.80;100545.00;;;;2058375;28;20250;-69
2023/08/05 00:19:36;;;;;;;128.50;80.73;;;;;22.80;100534.00;;;;2070615;28;20705;-68
2023/08/05 00:20:36;;;;;;;129.47;78.93;;;;;22.80;100541.00;;;;2070248;28;20745;-68
2023/08/05 00:21:36;;;;;;;119.50;79.23;;;;;22.80;100542.00;;;;2062455;28;20221;-68
2023/08/05 00:22:37;;;;;;;119.27;76.00;;;;;22.80;100542.00;;;;2054605;28;20215;-68
2023/08/05 00:23:37;;;;;;;112.00;72.40;;;;;22.80;100554.00;;;;2061320;28;20237;-68
2023/08/05 00:24:37;;;;;;;113.70;71.57;;;;;22.70;100544.00;;;;2071323;28;20304;-68
2023/08/05 00:25:38;;;;;;;105.20;70.30;;;;;22.80;100543.00;;;;2063433;28;20215;-68
2023/08/05 00:26:38;;;;;;;120.07;71.10;;;;;22.80;100547.00;;;;2068229;28;25401;-68
2023/08/05 00:27:38;;;;;;;109.33;69.27;;;;;22.80;100538.00;;;;2063756;28;20679;-68
2023/08/05 00:28:39;;;;;;;105.80;65.90;;;;;22.80;100539.00;;;;2059625;28;21231;-69
2023/08/05 00:29:39;;;;;;;101.33;64.47;;;;;22.80;100540.00;;;;2065534;28;20776;-69
2023/08/05 00:30:39;;;;;;;93.70;63.40;;;;;22.80;100538.00;;;;2064361;28;20667;-69
2023/08/05 00:31:40;;;;;;;97.90;64.70;;;;;22.80;100531.00;;;;2070968;28;20214;-69
2023/08/05 00:32:40;;;;;;;95.43;60.50;;;;;22.80;100535.00;;;;2062357;28;20274;-69
2023/08/05 00:33:40;;;;;;;90.60;60.83;;;;;22.70;100526.00;;;;2067359;28;20217;-69
2023/08/05 00:34:41;;;;;;;91.37;58.53;;;;;22.80;100520.00;;;;2076154;28;20249;-69
2023/08/05 00:35:41;;;;;;;95.20;61.10;;;;;22.70;100525.00;;;;2070133;28;20407;-69
2023/08/05 00:36:41;;;;;;;84.37;57.83;;;;;22.80;100517.00;;;;2070823;28;20226;-69
2023/08/05 00:37:42;;;;;;;86.30;56.00;;;;;22.70;100521.00;;;;2056545;28;20227;-69
2023/08/05 00:38:42;;;;;;;85.87;53.40;;;;;22.80;100518.00;;;;2068047;28;20274;-69
2023/08/05 00:39:42;;;;;;;81.73;54.23;;;;;22.70;100525.00;;;;2067698;28;20225;-69
2023/08/05 00:40:44;;;;;;;75.00;51.80;;;;;22.80;100527.00;;;;2068395;28;20214;-69
2023/08/05 00:41:44;;;;;;;73.72;51.95;;;;;22.80;100526.00;;;;2070859;28;20260;-69
2023/08/05 00:42:45;;;;;;;74.37;50.60;;;;;22.80;100527.00;;;;2065735;28;20562;-69
2023/08/05 00:43:45;;;;;;;70.23;49.97;;;;;22.80;100531.00;;;;2055377;28;20587;-69
2023/08/05 00:44:45;;;;;;;82.77;52.20;;;;;22.60;100532.00;;;;2070532;28;20245;-69
2023/08/05 00:45:46;;;;;;;76.50;51.50;;;;;22.70;100527.00;;;;2065990;28;20241;-69
2023/08/05 00:46:46;;;;;;;70.60;48.80;;;;;22.70;100521.00;;;;2063217;28;20261;-69
2023/08/05 00:47:46;;;;;;;66.97;47.63;;;;;22.70;100522.00;;;;2063321;28;20222;-69
2023/08/05 00:48:47;;;;;;;72.73;48.10;;;;;22.70;100503.00;;;;2054430;28;20285;-70
2023/08/05 00:49:49;;;;;;;68.53;45.60;;;;;22.70;100517.00;;;;2069761;28;20309;-69
2023/08/05 00:50:49;;;;;;;64.80;45.53;;;;;22.70;100521.00;;;;2061653;28;20250;-69
2023/08/05 00:51:50;;;;;;;63.80;45.43;;;;;22.70;100526.00;;;;2053612;28;20231;-69
2023/08/05 00:52:50;;;;;;;66.67;45.33;;;;;22.70;100521.00;;;;2062976;28;20227;-69
2023/08/05 00:53:50;;;;;;;65.33;44.00;;;;;22.70;100508.00;;;;2067887;28;20217;-69
2023/08/05 00:54:51;;;;;;;62.97;44.80;;;;;22.70;100467.00;;;;2067875;28;20583;-69
2023/08/05 00:55:51;;;;;;;62.90;43.73;;;;;22.70;100509.00;;;;2056729;28;21745;-69
2023/08/05 00:56:52;;;;;;;61.13;41.10;;;;;22.70;100471.00;;;;2066155;28;20317;-69
2023/08/05 00:57:52;;;;;;;57.63;41.10;;;;;22.70;100506.00;;;;2057640;28;20219;-69
2023/08/05 00:58:53;;;;;;;57.57;41.70;;;;;22.70;100506.00;;;;2064757;28;20222;-69
2023/08/05 00:59:53;;;;;;;59.20;40.40;;;;;22.80;100506.00;;;;2063711;28;20219;-69
2023/08/05 01:00:54;;;;;;;53.00;39.40;;;;;22.70;100506.00;;;;2067991;28;20457;-69
2023/08/05 01:01:54;;;;;;;53.90;39.20;;;;;22.70;100504.00;;;;2068569;28;20341;-69
2023/08/05 01:02:54;;;;;;;53.07;37.27;;;;;22.60;100504.00;;;;2058398;28;20255;-69
2023/08/05 01:03:55;;;;;;;52.13;37.67;;;;;22.70;100498.00;;;;2076496;28;20209;-69
2023/08/05 01:04:55;;;;;;;52.10;37.27;;;;;22.70;100507.00;;;;2087281;28;20219;-69
2023/08/05 01:05:55;;;;;;;52.00;35.30;;;;;22.70;100501.00;;;;2072196;28;20236;-69
2023/08/05 01:06:56;;;;;;;49.83;34.90;;;;;22.70;100503.00;;;;2072937;28;20214;-69
2023/08/05 01:07:57;;;;;;;46.38;33.80;;;;;22.70;100497.00;;;;2059897;28;20210;-69
2023/08/05 01:08:57;;;;;;;47.87;34.57;;;;;22.70;100497.00;;;;2071231;28;20216;-69
2023/08/05 01:09:57;;;;;;;46.60;33.23;;;;;22.70;100499.00;;;;2074630;28;20219;-69
2023/08/05 01:10:59;;;;;;;49.33;33.60;;;;;22.70;100514.00;;;;2067927;28;20230;-69
2023/08/05 01:11:59;;;;;;;49.55;34.38;;;;;22.70;100507.00;;;;2063272;28;20275;-69
2023/08/05 01:12:59;;;;;;;44.87;32.50;;;;;22.70;100512.00;;;;2053055;28;20250;-69
2023/08/05 01:14:00;;;;;;;44.27;31.63;;;;;22.70;100513.00;;;;2076517;28;20684;-69
2023/08/05 01:15:00;;;;;;;45.30;32.60;;;;;22.70;100510.00;;;;2076248;28;20607;-69
2023/08/05 01:16:00;;;;;;;50.03;31.80;;;;;22.70;100507.00;;;;2068032;28;20222;-69
2023/08/05 01:17:02;;;;;;;42.63;31.10;;;;;22.70;100507.00;;;;2064740;28;20268;-69
2023/08/05 01:18:02;;;;;;;40.85;28.48;;;;;22.70;100515.00;;;;2055205;28;20211;-69
2023/08/05 01:19:03;;;;;;;36.80;28.33;;;;;22.70;100513.00;;;;2070216;28;20206;-69
2023/08/05 01:20:04;;;;;;;38.77;27.33;;;;;22.70;100506.00;;;;2061910;28;20207;-69
2023/08/05 01:21:10;;;;;;;40.10;28.05;;;;;22.70;100503.00;;;;2062780;28;20454;-69
2023/08/05 01:22:28;;;;;;;37.05;26.52;;;;;22.70;100509.00;;;;2059780;28;20215;-69
2023/08/05 01:23:35;;;;;;;37.25;26.13;;;;;22.70;100508.00;;;;2057539;28;20248;-69
2023/08/05 01:24:43;;;;;;;40.80;27.85;;;;;22.70;100506.00;;;;2064905;28;20203;-69
2023/08/05 01:25:44;;;;;;;36.47;25.55;;;;;22.70;100510.00;;;;2062701;28;20298;-69
2023/08/05 01:26:44;;;;;;;35.93;25.33;;;;;22.70;100505.00;;;;2066785;28;20222;-69
2023/08/05 01:27:44;;;;;;;36.83;25.80;;;;;22.70;100501.00;;;;2070298;28;20277;-69
2023/08/05 01:28:45;;;;;;;37.00;24.80;;;;;22.70;100463.00;;;;2061110;28;20765;-69
2023/08/05 01:29:46;;;;;;;34.43;24.97;;;;;22.70;100505.00;;;;2069136;28;20670;-69
2023/08/05 01:30:46;;;;;;;30.17;23.10;;;;;22.70;100497.00;;;;2054825;28;20463;-69
2023/08/05 01:31:46;;;;;;;32.27;23.10;;;;;22.70;100502.00;;;;2062051;28;20304;-69
2023/08/05 01:32:47;;;;;;;31.57;23.53;;;;;22.70;100502.00;;;;2062804;28;20273;-69
2023/08/05 01:33:47;;;;;;;29.60;21.53;;;;;22.70;100495.00;;;;2052568;28;20219;-69
2023/08/05 01:34:47;;;;;;;34.20;23.90;;;;;22.70;100501.00;;;;2068038;28;20242;-69
2023/08/05 01:35:48;;;;;;;31.40;22.77;;;;;22.70;100498.00;;;;2062384;28;20241;-69
2023/08/05 01:36:49;;;;;;;29.63;21.30;;;;;22.70;100501.00;;;;2068606;28;20734;-69
2023/08/05 01:37:49;;;;;;;30.33;21.97;;;;;22.70;100501.00;;;;2064953;28;20231;-69
2023/08/05 01:38:50;;;;;;;30.40;21.13;;;;;22.70;100500.00;;;;2054773;28;20293;-69
2023/08/05 01:39:50;;;;;;;30.20;20.43;;;;;22.70;100499.00;;;;2070607;28;20649;-69
2023/08/05 01:40:50;;;;;;;31.00;22.03;;;;;22.70;100491.00;;;;2063321;28;20234;-69
2023/08/05 01:41:51;;;;;;;28.40;20.07;;;;;22.70;100504.00;;;;2061438;28;20254;-69
2023/08/05 01:42:51;;;;;;;29.60;19.60;;;;;22.70;100498.00;;;;2066045;28;20226;-69
2023/08/05 01:43:51;;;;;;;24.87;18.83;;;;;22.70;100496.00;;;;2060268;28;20214;-69
2023/08/05 01:44:52;;;;;;;27.13;18.20;;;;;22.70;100505.00;;;;2069843;28;20721;-69
2023/08/05 01:45:52;;;;;;;26.07;18.60;;;;;22.70;100500.00;;;;2062991;28;20532;-69
2023/08/05 01:46:52;;;;;;;24.47;17.30;;;;;22.70;100504.00;;;;2069721;28;21952;-69
2023/08/05 01:47:52;;;;;;;26.20;17.73;;;;;22.70;100504.00;;;;2062767;28;20662;-69
2023/08/05 01:48:53;;;;;;;24.77;18.13;;;;;22.70;100504.00;;;;2074220;28;20692;-69
2023/08/05 01:49:53;;;;;;;24.13;16.80;;;;;22.70;100508.00;;;;2080337;28;20213;-69
2023/08/05 01:50:53;;;;;;;22.80;16.40;;;;;22.70;100502.00;;;;2069078;28;20330;-69
2023/08/05 01:51:54;;;;;;;24.10;16.80;;;;;22.70;100507.00;;;;2063180;28;20237;-69
2023/08/05 01:52:54;;;;;;;24.27;16.90;;;;;22.70;100495.00;;;;2058607;28;20221;-69
2023/08/05 01:53:54;;;;;;;20.93;16.70;;;;;22.70;100508.00;;;;2070807;28;20218;-69
2023/08/05 01:54:55;;;;;;;23.70;15.90;;;;;22.70;100496.00;;;;2069322;28;20289;-69
2023/08/05 01:55:55;;;;;;;21.83;16.50;;;;;22.70;100502.00;;;;2068224;28;20279;-69
2023/08/05 01:56:55;;;;;;;22.10;16.57;;;;;22.70;100514.00;;;;2064508;28;20222;-69
2023/08/05 01:57:56;;;;;;;20.40;14.93;;;;;22.60;100507.00;;;;2059397;28;20256;-69
2023/08/05 01:58:56;;;;;;;20.10;14.73;;;;;22.70;100507.00;;;;2064459;28;20218;-69
2023/08/05 01:59:56;;;;;;;19.90;14.97;;;;;22.70;100507.00;;;;2062000;28;20214;-69
2023/08/05 02:00:57;;;;;;;22.77;15.90;;;;;22.60;100517.00;;;;2069936;28;20218;-69
2023/08/05 02:01:57;;;;;;;19.30;14.40;;;;;22.70;100518.00;;;;2070041;28;20587;-69
2023/08/05 02:02:57;;;;;;;20.87;14.13;;;;;22.60;100516.00;;;;2058425;28;20229;-69
2023/08/05 02:03:58;;;;;;;17.20;13.30;;;;;22.70;100515.00;;;;2064641;28;20247;-69
2023/08/05 02:04:58;;;;;;;17.73;13.67;;;;;22.70;100509.00;;;;2073676;28;20585;-69
2023/08/05 02:05:58;;;;;;;17.03;14.37;;;;;22.60;100508.00;;;;2069276;28;20711;-69
2023/08/05 02:06:59;;;;;;;20.03;13.13;;;;;22.60;100491.00;;;;2060427;28;20574;-69
2023/08/05 02:07:59;;;;;;;17.43;12.90;;;;;22.60;100504.00;;;;2060000;28;20792;-69
2023/08/05 02:08:59;;;;;;;21.50;13.47;;;;;22.60;100507.00;;;;2068479;28;20319;-69
2023/08/05 02:10:00;;;;;;;18.70;12.87;;;;;22.60;100510.00;;;;2068718;28;20209;-69
2023/08/05 02:11:00;;;;;;;16.80;11.93;;;;;22.60;100503.00;;;;2069796;28;20237;-69
2023/08/05 02:12:00;;;;;;;16.37;12.40;;;;;22.60;100505.00;;;;2063285;28;20222;-69
2023/08/05 02:13:00;;;;;;;16.13;11.10;;;;;22.60;100504.00;;;;2052254;28;20215;-69
2023/08/05 02:14:01;;;;;;;19.17;13.27;;;;;22.60;100446.00;;;;2069242;28;20206;-69
2023/08/05 02:15:01;;;;;;;16.17;11.37;;;;;22.60;100498.00;;;;2069249;28;20216;-69
2023/08/05 02:16:03;;;;;;;17.20;11.30;;;;;22.60;100488.00;;;;2068379;28;20309;-69
2023/08/05 02:17:03;;;;;;;14.95;10.70;;;;;22.60;100497.00;;;;2068676;28;20292;-69
2023/08/05 02:18:04;;;;;;;16.80;11.13;;;;;22.60;100492.00;;;;2054639;28;20217;-69
2023/08/05 02:19:04;;;;;;;13.60;10.47;;;;;22.60;100491.00;;;;2077212;28;20762;-69
2023/08/05 02:20:05;;;;;;;17.40;10.83;;;;;22.60;100489.00;;;;2072717;28;20201;-69
2023/08/05 02:21:06;;;;;;;16.58;10.88;;;;;22.60;100492.00;;;;2069291;28;20202;-69
2023/08/05 02:22:06;;;;;;;14.83;10.47;;;;;22.60;100493.00;;;;2067284;28;20210;-69
2023/08/05 02:23:07;;;;;;;12.83;9.63;;;;;22.60;100497.00;;;;2046997;28;20196;-69
2023/08/05 02:24:09;;;;;;;13.00;10.00;;;;;22.60;100485.00;;;;2061390;28;20368;-69
2023/08/05 02:25:10;;;;;;;13.38;10.10;;;;;22.60;100505.00;;;;2064288;28;20219;-69
2023/08/05 02:26:10;;;;;;;13.50;9.90;;;;;22.60;100497.00;;;;2065615;28;20223;-69
2023/08/05 02:27:10;;;;;;;12.70;9.90;;;;;22.60;100497.00;;;;2070650;28;20305;-69
2023/08/05 02:28:11;;;;;;;11.83;9.03;;;;;22.60;100491.00;;;;2060298;28;20294;-69
2023/08/05 02:29:11;;;;;;;10.70;8.50;;;;;22.60;100502.00;;;;2067760;28;20213;-69
2023/08/05 02:30:11;;;;;;;11.10;8.37;;;;;22.60;100388.00;;;;2065106;28;20207;-70
2023/08/05 02:31:15;;;;;;;12.77;9.00;;;;;22.60;100486.00;;;;2065593;28;20211;-69
2023/08/05 02:32:15;;;;;;;13.77;9.80;;;;;22.60;100483.00;;;;2066633;28;21339;-69
2023/08/05 02:33:15;;;;;;;13.03;9.00;;;;;22.60;100480.00;;;;2051754;28;20303;-69
2023/08/05 02:34:16;;;;;;;12.33;8.60;;;;;22.60;100482.00;;;;2062360;28;20219;-69
2023/08/05 02:35:16;;;;;;;12.87;8.60;;;;;22.60;100482.00;;;;2069444;28;20218;-69
2023/08/05 02:36:16;;;;;;;12.30;7.80;;;;;22.60;100479.00;;;;2070947;28;20241;-69
2023/08/05 02:37:16;;;;;;;11.67;8.70;;;;;22.60;100455.00;;;;2067402;28;20233;-69
2023/08/05 02:38:17;;;;;;;11.13;8.47;;;;;22.60;100486.00;;;;2058492;28;20222;-69
2023/08/05 02:39:17;;;;;;;10.37;8.33;;;;;22.60;100483.00;;;;2069678;28;21115;-69
2023/08/05 02:40:17;;;;;;;9.40;7.83;;;;;22.60;100480.00;;;;2069650;28;20751;-69
2023/08/05 02:41:18;;;;;;;8.73;7.77;;;;;22.60;100478.00;;;;2064926;28;20574;-69
2023/08/05 02:42:18;;;;;;;9.60;7.83;;;;;22.60;100478.00;;;;2069190;28;20706;-69
2023/08/05 02:43:19;;;;;;;9.47;7.43;;;;;22.60;100476.00;;;;2060289;28;20229;-69
2023/08/05 02:44:19;;;;;;;11.03;7.20;;;;;22.60;100479.00;;;;2074350;28;20284;-69
2023/08/05 02:45:19;;;;;;;10.10;7.50;;;;;22.60;100479.00;;;;2073752;28;20257;-69
2023/08/05 02:46:19;;;;;;;10.03;7.07;;;;;22.60;100473.00;;;;2067058;28;20230;-69
2023/08/05 02:47:20;;;;;;;8.00;6.57;;;;;22.60;100483.00;;;;2066465;28;20284;-69
2023/08/05 02:48:21;;;;;;;11.43;7.17;;;;;22.60;100480.00;;;;2057023;28;20245;-69
2023/08/05 02:49:22;;;;;;;9.38;7.13;;;;;22.60;100478.00;;;;2066555;28;20232;-69
2023/08/05 02:50:22;;;;;;;9.47;6.70;;;;;22.60;100380.00;;;;2066442;28;20218;-69
2023/08/05 02:51:22;;;;;;;8.40;7.00;;;;;22.60;100480.00;;;;2064597;28;20214;-69
2023/08/05 02:52:23;;;;;;;8.30;6.30;;;;;22.60;100478.00;;;;2065815;28;20234;-69
2023/08/05 02:53:23;;;;;;;10.37;6.40;;;;;22.60;100485.00;;;;2058550;28;20296;-69
2023/08/05 02:54:23;;;;;;;8.70;6.57;;;;;22.60;100454.00;;;;2066237;28;20729;-69
2023/08/05 02:55:24;;;;;;;8.63;6.80;;;;;22.60;100476.00;;;;2070623;28;20635;-69
2023/08/05 02:56:24;;;;;;;7.37;6.27;;;;;22.60;100488.00;;;;2066019;28;20284;-69
2023/08/05 02:57:24;;;;;;;7.30;6.30;;;;;22.60;100476.00;;;;2069914;28;20656;-69
2023/08/05 02:58:25;;;;;;;8.40;6.27;;;;;22.60;100484.00;;;;2060496;28;20851;-69
2023/08/05 02:59:25;;;;;;;8.60;5.90;;;;;22.60;100476.00;;;;2074265;28;20213;-69
2023/08/05 03:00:25;;;;;;;8.50;6.40;;;;;22.60;100476.00;;;;2078073;28;20277;-69
2023/08/05 03:01:26;;;;;;;9.63;6.10;;;;;22.60;100476.00;;;;2069501;28;20573;-69
2023/08/05 03:02:26;;;;;;;6.53;5.83;;;;;22.60;100476.00;;;;2066094;28;20215;-69
2023/08/05 03:03:27;;;;;;;6.80;5.03;;;;;22.60;100478.00;;;;2053398;28;21662;-69
2023/08/05 03:04:27;;;;;;;8.60;6.03;;;;;22.60;100471.00;;;;2071134;28;20226;-69
2023/08/05 03:05:27;;;;;;;7.67;5.93;;;;;22.60;100475.00;;;;2068999;28;20751;-69
2023/08/05 03:06:28;;;;;;;6.73;5.47;;;;;22.60;100472.00;;;;2070014;28;20656;-69
2023/08/05 03:07:28;;;;;;;6.90;5.50;;;;;22.60;100469.00;;;;2066243;28;20594;-69
2023/08/05 03:08:28;;;;;;;7.03;5.40;;;;;22.60;100471.00;;;;2058212;28;20313;-69
2023/08/05 03:09:29;;;;;;;7.40;5.17;;;;;22.60;100471.00;;;;2078705;28;20210;-69
2023/08/05 03:10:32;;;;;;;9.20;5.90;;;;;22.60;100470.00;;;;2072790;28;20221;-69
2023/08/05 03:11:32;;;;;;;6.13;4.70;;;;;22.60;100469.00;;;;2064447;28;20226;-69
2023/08/05 03:12:32;;;;;;;8.47;5.30;;;;;22.60;100467.00;;;;2065111;28;20297;-69
2023/08/05 03:13:33;;;;;;;6.23;5.43;;;;;22.60;100475.00;;;;2053429;28;20214;-69
2023/08/05 03:14:34;;;;;;;5.37;4.43;;;;;22.60;100462.00;;;;2067580;28;20215;-69
2023/08/05 03:15:34;;;;;;;7.20;4.93;;;;;22.60;100468.00;;;;2069698;28;20818;-69
2023/08/05 03:16:34;;;;;;;5.73;5.00;;;;;22.60;100468.00;;;;2065744;28;20320;-69
2023/08/05 03:17:35;;;;;;;6.50;4.93;;;;;22.60;100467.00;;;;2066842;28;20213;-69
2023/08/05 03:18:36;;;;;;;6.77;4.73;;;;;22.60;100463.00;;;;2061726;28;20211;-69
2023/08/05 03:19:36;;;;;;;6.03;4.80;;;;;22.60;100470.00;;;;2071480;28;20632;-69
2023/08/05 03:20:36;;;;;;;8.10;4.87;;;;;22.60;100472.00;;;;2064747;28;20207;-69
2023/08/05 03:21:37;;;;;;;6.60;4.70;;;;;22.60;100468.00;;;;2067655;28;20577;-69
2023/08/05 03:22:37;;;;;;;6.20;4.50;;;;;22.60;100470.00;;;;2069670;28;20561;-69
2023/08/05 03:23:37;;;;;;;5.20;4.20;;;;;22.60;100471.00;;;;2066757;28;20708;-69
2023/08/05 03:24:37;;;;;;;5.13;3.93;;;;;22.60;100474.00;;;;2078032;28;20697;-69
2023/08/05 03:25:38;;;;;;;5.07;4.10;;;;;22.60;100472.00;;;;2071962;28;20229;-69
2023/08/05 03:26:38;;;;;;;5.80;4.20;;;;;22.50;100479.00;;;;2066421;28;20246;-69
2023/08/05 03:27:38;;;;;;;5.57;3.90;;;;;22.50;100463.00;;;;2064293;28;20241;-69
2023/08/05 03:28:39;;;;;;;5.30;4.30;;;;;22.60;100470.00;;;;2071345;28;20220;-69
2023/08/05 03:29:39;;;;;;;5.73;3.73;;;;;22.60;100460.00;;;;2081214;28;20755;-69
2023/08/05 03:30:40;;;;;;;5.57;4.07;;;;;22.60;100462.00;;;;2073084;28;20736;-69
2023/08/05 03:31:40;;;;;;;5.80;4.10;;;;;22.60;100473.00;;;;2068708;28;20241;-69
2023/08/05 03:32:40;;;;;;;5.80;3.60;;;;;22.60;100436.00;;;;2063392;28;20662;-69
2023/08/05 03:33:45;;;;;;;4.70;3.63;;;;;22.60;100466.00;;;;2059296;28;20617;-69
2023/08/05 03:34:45;;;;;;;4.13;3.72;;;;;22.60;100455.00;;;;2069589;28;20216;-69
2023/08/05 03:35:45;;;;;;;5.37;4.00;;;;;22.60;100457.00;;;;2065819;28;20226;-69
2023/08/05 03:36:46;;;;;;;4.53;3.80;;;;;22.60;100451.00;;;;2068329;28;20702;-69
2023/08/05 03:37:46;;;;;;;5.33;3.70;;;;;22.60;100451.00;;;;2067437;28;20246;-69
2023/08/05 03:38:46;;;;;;;5.13;4.20;;;;;22.60;100457.00;;;;2073952;28;20423;-69
2023/08/05 03:39:48;;;;;;;5.70;3.87;;;;;22.60;100449.00;;;;2083782;28;20245;-69
2023/08/05 03:40:48;;;;;;;4.68;3.50;;;;;22.60;100451.00;;;;2073481;28;20221;-69
2023/08/05 03:41:48;;;;;;;4.67;3.60;;;;;22.60;100448.00;;;;2071611;28;20236;-69
2023/08/05 03:42:49;;;;;;;4.00;3.63;;;;;22.60;100452.00;;;;2068420;28;21805;-69
2023/08/05 03:43:49;;;;;;;4.20;3.70;;;;;22.60;100456.00;;;;2060497;28;20272;-69
2023/08/05 03:44:49;;;;;;;5.00;4.07;;;;;22.60;100446.00;;;;2072188;28;20230;-69
2023/08/05 03:45:51;;;;;;;4.73;3.50;;;;;22.50;100452.00;;;;2066940;28;20313;-69
2023/08/05 03:46:51;;;;;;;4.30;3.40;;;;;22.60;100452.00;;;;2062959;28;20227;-69
2023/08/05 03:47:53;;;;;;;3.30;3.00;;;;;22.50;100451.00;;;;2068429;28;20217;-69
2023/08/05 03:48:55;;;;;;;4.22;3.33;;;;;22.50;100447.00;;;;2065684;28;20635;-69
2023/08/05 03:49:55;;;;;;;4.07;3.38;;;;;22.50;100445.00;;;;2072634;28;20225;-69
2023/08/05 03:50:56;;;;;;;3.07;2.77;;;;;22.50;100446.00;;;;2071608;28;20678;-69
2023/08/05 03:51:56;;;;;;;4.37;3.03;;;;;22.60;100413.00;;;;2064745;28;20219;-69
2023/08/05 03:52:57;;;;;;;4.57;3.30;;;;;22.40;100429.00;;;;2060336;28;20233;-69
2023/08/05 03:53:58;;;;;;;4.50;3.10;;;;;22.50;100435.00;;;;2066062;28;20225;-69
2023/08/05 03:54:58;;;;;;;4.70;3.57;;;;;22.50;100434.00;;;;2065278;28;20219;-69
2023/08/05 03:55:59;;;;;;;4.17;2.90;;;;;22.60;100426.00;;;;2072025;28;20223;-69
2023/08/05 03:56:59;;;;;;;2.97;2.67;;;;;22.50;100434.00;;;;2064746;28;20590;-69
2023/08/05 03:57:59;;;;;;;5.00;3.03;;;;;22.50;100434.00;;;;2061543;28;20210;-69
2023/08/05 03:59:00;;;;;;;3.57;3.03;;;;;22.60;100431.00;;;;2072100;28;20217;-69
2023/08/05 04:00:00;;;;;;;3.20;2.90;;;;;22.50;100432.00;;;;2066720;28;20240;-69
2023/08/05 04:01:01;;;;;;;3.30;3.00;;;;;22.50;100437.00;;;;2070189;28;20210;-69
2023/08/05 04:02:01;;;;;;;3.20;2.90;;;;;22.50;100435.00;;;;2071183;28;20682;-69
2023/08/05 04:03:02;;;;;;;4.97;3.27;;;;;22.50;100430.00;;;;2062248;28;20230;-69
2023/08/05 04:04:03;;;;;;;3.37;3.00;;;;;22.50;100391.00;;;;2068105;28;20213;-69
2023/08/05 04:05:04;;;;;;;4.63;3.27;;;;;22.50;100399.00;;;;2069152;28;20445;-69
2023/08/05 04:06:05;;;;;;;4.05;3.15;;;;;22.50;100436.00;;;;2071334;28;20206;-69
2023/08/05 04:07:06;;;;;;;2.75;2.40;;;;;22.50;100432.00;;;;2070458;28;20776;-69
2023/08/05 04:08:07;;;;;;;4.13;2.60;;;;;22.50;100431.00;;;;2056068;28;20242;-69
2023/08/05 04:09:07;;;;;;;4.10;2.87;;;;;22.50;100435.00;;;;2069554;28;20199;-69
2023/08/05 04:10:08;;;;;;;5.67;2.60;;;;;22.50;100437.00;;;;2072309;28;20245;-70
2023/08/05 04:11:08;;;;;;;2.77;2.37;;;;;22.50;100437.00;;;;2071360;28;20214;-70
2023/08/05 04:12:09;;;;;;;2.80;2.53;;;;;22.50;100435.00;;;;2068802;28;20765;-69
2023/08/05 04:13:11;;;;;;;3.87;3.00;;;;;22.50;100439.00;;;;2056313;28;20211;-69
2023/08/05 04:14:11;;;;;;;3.10;2.80;;;;;22.50;100436.00;;;;2067127;28;20215;-69
2023/08/05 04:15:13;;;;;;;4.10;2.80;;;;;22.50;100434.00;;;;2068396;28;20211;-69
2023/08/05 04:16:16;;;;;;;3.83;2.67;;;;;22.50;100399.00;;;;2065238;28;20223;-69
2023/08/05 04:17:17;;;;;;;3.67;2.78;;;;;22.50;100439.00;;;;2072583;28;20206;-69
2023/08/05 04:18:17;;;;;;;2.67;2.43;;;;;22.50;100432.00;;;;2063006;28;20233;-69
2023/08/05 04:19:18;;;;;;;2.90;2.60;;;;;22.50;100440.00;;;;2073736;28;20213;-69
2023/08/05 04:20:19;;;;;;;2.90;2.28;;;;;22.50;100438.00;;;;2078010;28;20215;-69
2023/08/05 04:21:23;;;;;;;3.33;2.47;;;;;22.50;100440.00;;;;2065739;28;20274;-69
2023/08/05 04:22:25;;;;;;;2.50;2.15;;;;;22.50;100441.00;;;;2064411;28;20679;-69
2023/08/05 04:23:28;;;;;;;4.00;2.70;;;;;22.50;100440.00;;;;2057234;28;20226;-69
2023/08/05 04:24:29;;;;;;;3.97;2.58;;;;;22.50;100439.00;;;;2068461;28;20273;-69
2023/08/05 04:25:31;;;;;;;2.70;2.20;;;;;22.50;100439.00;;;;2065170;28;20609;-69
2023/08/05 04:26:35;;;;;;;2.92;2.20;;;;;22.50;100436.00;;;;2070370;28;20976;-69
2023/08/05 04:27:37;;;;;;;2.78;2.50;;;;;22.50;100424.00;;;;2070241;28;20301;-69
2023/08/05 04:28:37;;;;;;;3.80;2.47;;;;;22.50;100438.00;;;;2061753;28;20206;-69
2023/08/05 04:29:38;;;;;;;3.00;2.40;;;;;22.50;100430.00;;;;2071409;28;20217;-69
2023/08/05 04:30:38;;;;;;;3.07;2.10;;;;;22.50;100402.00;;;;2064419;28;20316;-70
2023/08/05 04:31:42;;;;;;;2.57;2.20;;;;;22.50;100427.00;;;;2079960;28;20214;-69
2023/08/05 04:32:42;;;;;;;5.22;2.33;;;;;22.50;100429.00;;;;2074023;28;20272;-69
2023/08/05 04:33:43;;;;;;;2.60;2.30;;;;;22.50;100420.00;;;;2057152;28;20289;-69
2023/08/05 04:34:44;;;;;;;2.53;2.20;;;;;22.50;100419.00;;;;2068142;28;20578;-69
2023/08/05 04:35:47;;;;;;;3.10;2.00;;;;;22.50;100415.00;;;;2071125;28;20229;-69
2023/08/05 04:36:49;;;;;;;3.70;2.60;;;;;22.50;100411.00;;;;2066127;28;20234;-69
2023/08/05 04:37:50;;;;;;;2.72;2.08;;;;;22.50;100401.00;;;;2066446;28;20229;-69
2023/08/05 04:38:50;;;;;;;2.50;2.20;;;;;22.50;100403.00;;;;2055076;28;20730;-69
2023/08/05 04:39:50;;;;;;;2.70;2.03;;;;;22.50;100409.00;;;;2068904;28;20669;-69
2023/08/05 04:40:51;;;;;;;2.20;2.00;;;;;22.50;100399.00;;;;2065445;28;20612;-69
2023/08/05 04:41:51;;;;;;;2.53;2.10;;;;;22.40;100406.00;;;;2065067;28;20223;-69
2023/08/05 04:42:51;;;;;;;2.10;1.90;;;;;22.50;100406.00;;;;2070613;28;20222;-69
2023/08/05 04:43:52;;;;;;;2.43;1.90;;;;;22.50;100404.00;;;;2055764;28;20325;-69
2023/08/05 04:44:52;;;;;;;2.63;2.13;;;;;22.50;100409.00;;;;2069010;28;20222;-69
2023/08/05 04:45:54;;;;;;;4.23;2.20;;;;;22.50;100404.00;;;;2065441;28;20219;-69
2023/08/05 04:46:54;;;;;;;2.97;2.08;;;;;22.50;100401.00;;;;2064727;28;20230;-69
2023/08/05 04:47:54;;;;;;;2.50;2.10;;;;;22.50;100399.00;;;;2064147;28;20221;-69
2023/08/05 04:48:55;;;;;;;2.47;2.27;;;;;22.50;100388.00;;;;2063208;28;20223;-69
2023/08/05 04:49:55;;;;;;;2.20;1.80;;;;;22.50;100392.00;;;;2063904;28;20669;-69
2023/08/05 04:50:56;;;;;;;2.60;2.13;;;;;22.50;100384.00;;;;2065148;28;20241;-69
2023/08/05 04:51:56;;;;;;;2.50;1.90;;;;;22.50;100386.00;;;;2070524;28;20214;-69
2023/08/05 04:52:56;;;;;;;2.40;2.20;;;;;22.50;100392.00;;;;2059839;28;20296;-69
2023/08/05 04:53:57;;;;;;;3.60;2.27;;;;;22.50;100376.00;;;;2069066;28;20218;-69
2023/08/05 04:54:57;;;;;;;2.80;2.23;;;;;22.50;100382.00;;;;2064989;28;20218;-69
2023/08/05 04:55:57;;;;;;;4.40;1.90;;;;;22.50;100371.00;;;;2068677;28;20237;-69